Time;durP1;ratioP1;P1;durP2;ratioP2;P2;SDS_P1;SDS_P2;PMS_P1;PMS_P2;Temp;Humidity;BMP_temperature;BMP_pressure;BME280_temperature;BME280_humidity;BME280_pressure;Samples;Min_cycle;Max_cycle;Signal;HPM_P1;HPM_P2
2022/02/17 00:02:06;;;;;;;;;;;;;;;21.63;45.20;97706.28;4869505;29;4426;-60
2022/02/17 00:04:32;;;;;;;;;;;;;;;21.62;45.26;97684.69;4859597;29;4294;-60
2022/02/17 00:06:59;;;;;;;;;;;;;;;21.62;45.31;97676.75;4864951;29;4223;-60
2022/02/17 00:09:26;;;;;;;;;;;;;;;21.61;45.19;97681.09;4865847;29;4233;-60
2022/02/17 00:11:52;;;;;;;;;;;;;;;21.61;45.41;97668.88;4869637;29;4123;-60
2022/02/17 00:14:19;;;;;;;;;;;;;;;21.61;45.23;97669.56;4867663;29;4264;-60
2022/02/17 00:16:47;;;;;;;;;;;;;;;21.62;45.36;97681.81;4864022;29;5530;-59
2022/02/17 00:19:14;;;;;;;;;;;;;;;21.60;45.40;97693.34;4866360;29;5282;-60
2022/02/17 00:21:40;;;;;;;;;;;;;;;21.59;45.43;97672.47;4866620;29;4216;-60
2022/02/17 00:24:07;;;;;;;;;;;;;;;21.59;45.19;97649.44;4867998;29;4317;-60
2022/02/17 00:26:33;;;;;;;;;;;;;;;21.59;45.30;97651.63;4867859;29;4224;-59
2022/02/17 00:29:00;;;;;;;;;;;;;;;21.58;45.50;97648.03;4866403;29;4091;-60
2022/02/17 00:31:26;;;;;;;;;;;;;;;21.58;45.57;97653.06;4865236;29;4263;-60
2022/02/17 00:33:52;;;;;;;;;;;;;;;21.56;45.45;97650.94;4880682;29;5512;-60
2022/02/17 00:36:19;;;;;;;;;;;;;;;21.55;45.58;97658.13;4883102;29;4225;-60
2022/02/17 00:38:45;;;;;;;;;;;;;;;21.55;45.52;97626.44;4866456;29;5618;-60
2022/02/17 00:41:12;;;;;;;;;;;;;;;21.55;45.40;97629.31;4866096;29;4340;-61
2022/02/17 00:43:40;;;;;;;;;;;;;;;21.55;45.42;97637.97;4879184;29;4406;-60
2022/02/17 00:46:06;;;;;;;;;;;;;;;21.54;45.44;97648.06;4867318;29;4330;-60
2022/02/17 00:48:33;;;;;;;;;;;;;;;21.53;45.56;97637.97;4864781;29;4934;-60
2022/02/17 00:50:59;;;;;;;;;;;;;;;21.53;45.68;97635.09;4866242;29;4093;-59
2022/02/17 00:53:26;;;;;;;;;;;;;;;21.52;45.71;97631.50;4884442;29;4212;-60
2022/02/17 00:55:57;;;;;;;;;;;;;;;21.52;45.60;97640.16;4864222;29;4284;-59
2022/02/17 00:58:23;;;;;;;;;;;;;;;21.52;45.58;97610.66;4866261;29;4334;-59
2022/02/17 01:00:50;;;;;;;;;;;;;;;21.51;45.72;97621.47;4878738;29;5396;-60
2022/02/17 01:03:16;;;;;;;;;;;;;;;21.52;45.87;97633.69;4880969;29;5452;-60
2022/02/17 01:05:44;;;;;;;;;;;;;;;21.53;46.08;97790.53;4867101;29;4267;-60
2022/02/17 01:08:10;;;;;;;;;;;;;;;21.53;45.72;97799.19;4867307;29;4316;-60
2022/02/17 01:10:36;;;;;;;;;;;;;;;21.53;45.94;97845.25;4870445;29;5331;-60
2022/02/17 01:13:03;;;;;;;;;;;;;;;21.52;45.71;97892.75;4869561;29;4530;-60
2022/02/17 01:15:29;;;;;;;;;;;;;;;21.52;45.84;97904.28;4870838;29;4373;-59
2022/02/17 01:17:56;;;;;;;;;;;;;;;21.50;45.63;97924.44;4863390;29;4335;-60
2022/02/17 01:20:25;;;;;;;;;;;;;;;21.47;45.77;97860.41;4871132;29;5280;-59
2022/02/17 01:22:56;;;;;;;;;;;;;;;21.46;45.66;97884.16;4877626;29;4173;-59
2022/02/17 01:25:22;;;;;;;;;;;;;;;21.47;45.39;97885.59;4874618;29;4193;-59
2022/02/17 01:27:51;;;;;;;;;;;;;;;21.47;45.48;97862.56;4885019;29;4280;-60
2022/02/17 01:30:18;;;;;;;;;;;;;;;21.47;45.38;97860.41;4884624;29;5352;-59
2022/02/17 01:32:44;;;;;;;;;;;;;;;21.48;45.60;97835.22;4872674;29;4268;-59
2022/02/17 01:35:10;;;;;;;;;;;;;;;21.49;45.49;97819.38;4870769;29;4288;-60
2022/02/17 01:37:54;;;;;;;;;;;;;;;21.49;45.48;97808.56;4883966;29;4359;-60
2022/02/17 01:40:21;;;;;;;;;;;;;;;21.50;45.55;97823.69;4882746;29;4226;-60
2022/02/17 01:42:47;;;;;;;;;;;;;;;21.51;45.67;97853.91;4870427;29;4536;-59
2022/02/17 01:45:13;;;;;;;;;;;;;;;21.49;45.66;97882.72;4870921;29;4579;-60
2022/02/17 01:47:43;;;;;;;;;;;;;;;21.48;45.71;97867.59;4863380;29;4411;-60
2022/02/17 01:50:10;;;;;;;;;;;;;;;21.49;45.43;97882.72;4862021;29;4257;-60
2022/02/17 01:52:37;;;;;;;;;;;;;;;21.48;45.51;97893.50;4880944;29;4206;-60
2022/02/17 01:55:03;;;;;;;;;;;;;;;21.48;45.60;97892.78;4882566;29;5526;-59
2022/02/17 01:57:30;;;;;;;;;;;;;;;21.48;45.51;97853.19;4866885;29;4156;-60
2022/02/17 02:00:02;;;;;;;;;;;;;;;21.46;45.62;97856.09;4882977;29;4282;-60
2022/02/17 02:02:42;;;;;;;;;;;;;;;21.46;45.48;97898.53;4871346;29;5738;-60
2022/02/17 02:05:10;;;;;;;;;;;;;;;21.47;45.42;97894.22;4881264;29;4465;-61
2022/02/17 02:07:37;;;;;;;;;;;;;;;21.47;45.48;97897.81;4870539;29;4236;-60
2022/02/17 02:10:04;;;;;;;;;;;;;;;21.45;45.72;97888.47;4847701;29;4072;-59
2022/02/17 02:12:32;;;;;;;;;;;;;;;21.47;45.29;97908.63;4864414;29;4210;-59
2022/02/17 02:15:01;;;;;;;;;;;;;;;21.48;45.54;97905.00;4884895;29;4416;-59
2022/02/17 02:17:29;;;;;;;;;;;;;;;21.48;45.37;97892.78;4884687;29;4254;-59
2022/02/17 02:19:57;;;;;;;;;;;;;;;21.48;45.44;97887.00;4876308;29;5442;-59
2022/02/17 02:22:26;;;;;;;;;;;;;;;21.48;45.29;97881.25;4878414;29;4303;-60
2022/02/17 02:24:54;;;;;;;;;;;;;;;21.48;45.51;97878.38;4881856;29;4648;-59
2022/02/17 02:27:21;;;;;;;;;;;;;;;21.47;45.33;97848.19;4876460;29;5267;-60
2022/02/17 02:29:48;;;;;;;;;;;;;;;21.46;45.32;97866.88;4877473;29;4292;-60
2022/02/17 02:32:15;;;;;;;;;;;;;;;21.46;45.36;97849.59;4882010;29;5613;-60
2022/02/17 02:34:41;;;;;;;;;;;;;;;21.46;45.34;97846.72;4861178;29;4270;-59
2022/02/17 02:37:13;;;;;;;;;;;;;;;21.46;45.37;97829.47;4866774;29;4342;-60
2022/02/17 02:39:42;;;;;;;;;;;;;;;21.46;45.22;97829.47;4882772;29;4227;-60
2022/02/17 02:42:09;;;;;;;;;;;;;;;21.41;45.32;97797.09;4881576;29;4304;-60
2022/02/17 02:44:36;;;;;;;;;;;;;;;21.43;45.54;97779.81;4882223;29;4326;-61
2022/02/17 02:47:03;;;;;;;;;;;;;;;21.43;45.19;97823.00;4883154;29;4229;-60
2022/02/17 02:49:39;;;;;;;;;;;;;;;21.45;45.34;97871.22;4882796;29;4236;-60
2022/02/17 02:52:06;;;;;;;;;;;;;;;21.46;45.08;97866.88;4867614;29;4274;-60
2022/02/17 02:54:36;;;;;;;;;;;;;;;21.45;45.18;97848.19;4880482;29;4161;-60
2022/02/17 02:57:02;;;;;;;;;;;;;;;21.44;45.11;97832.34;4881017;29;4263;-60
2022/02/17 02:59:29;;;;;;;;;;;;;;;21.43;44.99;97833.81;4885022;29;4216;-60
2022/02/17 03:01:59;;;;;;;;;;;;;;;21.43;45.09;97816.53;4862964;29;4257;-60
2022/02/17 03:04:27;;;;;;;;;;;;;;;21.44;44.93;97823.72;4869217;29;4233;-60
2022/02/17 03:06:56;;;;;;;;;;;;;;;21.43;45.03;97823.00;4883892;29;4054;-59
2022/02/17 03:09:23;;;;;;;;;;;;;;;21.41;44.83;97785.59;4867445;29;4404;-59
2022/02/17 03:11:51;;;;;;;;;;;;;;;21.42;44.79;97797.84;4883497;29;5603;-60
2022/02/17 03:14:17;;;;;;;;;;;;;;;21.41;44.86;97830.94;4883239;29;4257;-60
2022/02/17 03:16:44;;;;;;;;;;;;;;;21.41;44.80;97833.81;4869011;29;4406;-59
2022/02/17 03:19:13;;;;;;;;;;;;;;;21.40;44.67;97826.59;4868946;29;4121;-60
2022/02/17 03:21:40;;;;;;;;;;;;;;;21.39;44.77;97816.53;4863051;29;4356;-60
2022/02/17 03:24:07;;;;;;;;;;;;;;;21.37;44.93;97820.13;4880456;29;5490;-62
2022/02/17 03:26:39;;;;;;;;;;;;;;;21.38;44.87;97823.75;4866462;29;5336;-59
2022/02/17 03:29:06;;;;;;;;;;;;;;;21.40;45.09;97829.50;4878952;29;4075;-60
2022/02/17 03:31:34;;;;;;;;;;;;;;;21.41;44.73;97810.78;4867302;29;4233;-60
2022/02/17 03:34:05;;;;;;;;;;;;;;;21.40;44.95;97784.19;4884365;29;5316;-59
2022/02/17 03:36:33;;;;;;;;;;;;;;;21.40;44.90;97812.97;4883463;29;4207;-60
2022/02/17 03:38:59;;;;;;;;;;;;;;;21.41;45.08;97802.16;4872698;29;4353;-60
2022/02/17 03:41:48;;;;;;;;;;;;;;;21.41;44.79;97790.63;4866990;29;4290;-59
2022/02/17 03:44:17;;;;;;;;;;;;;;;21.41;44.81;97779.13;4881662;29;4279;-60
2022/02/17 03:46:46;;;;;;;;;;;;;;;21.42;44.59;97794.97;4875839;29;4471;-60
2022/02/17 03:49:14;;;;;;;;;;;;;;;21.41;44.57;97802.16;4880416;29;4338;-59
2022/02/17 03:51:40;;;;;;;;;;;;;;;21.42;44.94;97763.31;4872607;29;4164;-59
2022/02/17 03:54:06;;;;;;;;;;;;;;;21.43;44.76;97776.25;4884304;29;4210;-60
2022/02/17 03:56:41;;;;;;;;;;;;;;;21.44;44.93;97797.81;4882616;29;5193;-59
2022/02/17 03:59:21;;;;;;;;;;;;;;;21.45;44.89;97816.53;4884276;29;5483;-60
2022/02/17 04:01:47;;;;;;;;;;;;;;;21.44;45.00;97829.47;4885748;29;4280;-59
2022/02/17 04:04:18;;;;;;;;;;;;;;;21.44;45.10;97817.97;4881750;29;4710;-60
2022/02/17 04:06:46;;;;;;;;;;;;;;;21.44;45.21;97824.44;4883590;29;4435;-60
2022/02/17 04:09:13;;;;;;;;;;;;;;;21.44;44.93;97830.19;4883109;29;4290;-60
2022/02/17 04:11:40;;;;;;;;;;;;;;;21.44;45.13;97840.97;4880783;29;4328;-59
2022/02/17 04:14:07;;;;;;;;;;;;;;;21.44;45.11;97829.47;4880546;29;4272;-60
2022/02/17 04:16:40;;;;;;;;;;;;;;;21.43;44.93;97828.03;4878945;29;4242;-59
2022/02/17 04:19:18;;;;;;;;;;;;;;;21.43;44.82;97830.94;4881672;29;4207;-60
2022/02/17 04:22:07;;;;;;;;;;;;;;;21.43;44.89;97828.03;4860872;29;4290;-60
2022/02/17 04:24:47;;;;;;;;;;;;;;;21.43;44.88;97823.00;4880723;29;5615;-60
2022/02/17 04:27:19;;;;;;;;;;;;;;;21.44;44.97;97864.00;4858431;29;4492;-60
2022/02/17 04:30:05;;;;;;;;;;;;;;;21.46;45.18;97884.16;4878821;29;4187;-61
2022/02/17 04:32:32;;;;;;;;;;;;;;;21.44;45.21;97890.66;4863440;29;4290;-60
2022/02/17 04:34:58;;;;;;;;;;;;;;;21.45;44.95;97882.72;4877445;29;4125;-60
2022/02/17 04:37:24;;;;;;;;;;;;;;;21.45;45.31;97876.97;4865828;29;4298;-60
2022/02/17 04:39:51;;;;;;;;;;;;;;;21.45;45.11;97859.69;4880684;29;4217;-60
2022/02/17 04:42:19;;;;;;;;;;;;;;;21.46;45.08;97889.91;4881260;29;5473;-60
2022/02/17 04:44:54;;;;;;;;;;;;;;;21.45;45.25;97889.19;4884651;29;4300;-60
2022/02/17 04:47:23;;;;;;;;;;;;;;;21.45;45.00;97889.19;4885018;29;5426;-60
2022/02/17 04:49:50;;;;;;;;;;;;;;;21.45;45.45;97920.16;4874064;29;4275;-60
2022/02/17 04:52:18;;;;;;;;;;;;;;;21.47;45.19;97943.16;4873027;29;5370;-60
2022/02/17 04:54:45;;;;;;;;;;;;;;;21.47;45.12;97951.81;4886994;29;4250;-60
2022/02/17 04:57:13;;;;;;;;;;;;;;;21.47;45.41;97934.53;4887908;29;4221;-60
2022/02/17 04:59:40;;;;;;;;;;;;;;;21.47;45.63;97963.31;4870231;29;5375;-59
2022/02/17 05:02:06;;;;;;;;;;;;;;;21.46;45.77;97965.47;4872657;29;4279;-60
2022/02/17 05:04:38;;;;;;;;;;;;;;;21.47;45.59;97963.31;4870006;29;4230;-60
2022/02/17 05:07:09;;;;;;;;;;;;;;;21.47;45.43;97960.44;4885451;29;4091;-60
2022/02/17 05:09:36;;;;;;;;;;;;;;;21.47;45.48;97971.94;4876751;29;5482;-60
2022/02/17 05:12:02;;;;;;;;;;;;;;;21.47;45.44;97971.94;4877241;29;4136;-60
2022/02/17 05:14:32;;;;;;;;;;;;;;;21.46;45.46;97976.25;4884489;29;4285;-60
2022/02/17 05:16:58;;;;;;;;;;;;;;;21.46;45.44;97976.25;4869677;29;4248;-60
2022/02/17 05:19:28;;;;;;;;;;;;;;;21.47;45.26;97971.94;4883322;29;4402;-61
2022/02/17 05:22:13;;;;;;;;;;;;;;;21.47;45.37;97971.94;4871200;29;4220;-61
2022/02/17 05:24:55;;;;;;;;;;;;;;;21.47;45.61;97971.94;4882938;29;4215;-60
2022/02/17 05:27:36;;;;;;;;;;;;;;;21.48;45.47;97984.88;4876317;29;4201;-60
2022/02/17 05:30:26;;;;;;;;;;;;;;;21.47;45.67;97987.06;4882180;29;4274;-60
2022/02/17 05:33:12;;;;;;;;;;;;;;;21.48;45.60;97984.88;4869868;29;4386;-60
2022/02/17 05:35:57;;;;;;;;;;;;;;;21.48;45.74;97970.50;4871355;29;5576;-60
2022/02/17 05:38:41;;;;;;;;;;;;;;;21.49;45.43;97974.81;4885468;29;6177;-59
2022/02/17 05:41:18;;;;;;;;;;;;;;;21.50;45.74;97964.72;4864216;29;4139;-60
2022/02/17 05:43:44;;;;;;;;;;;;;;;21.50;45.53;97964.72;4871244;29;4191;-60
2022/02/17 05:46:10;;;;;;;;;;;;;;;21.49;45.75;97960.44;4871434;29;4299;-60
2022/02/17 05:48:37;;;;;;;;;;;;;;;21.49;45.70;97955.38;4869947;29;4165;-60
2022/02/17 05:51:03;;;;;;;;;;;;;;;21.50;45.41;97976.25;4870879;29;4321;-60
2022/02/17 05:53:30;;;;;;;;;;;;;;;21.49;45.61;97969.06;4868521;29;4173;-60
2022/02/17 05:55:56;;;;;;;;;;;;;;;21.50;45.50;98005.03;4868535;29;4122;-60
2022/02/17 05:58:23;;;;;;;;;;;;;;;21.48;45.57;97996.41;4863854;29;4269;-60
2022/02/17 06:00:50;;;;;;;;;;;;;;;21.50;45.45;97997.09;4863093;29;4204;-60
2022/02/17 06:03:16;;;;;;;;;;;;;;;21.49;45.60;97997.84;4869067;29;4221;-61
2022/02/17 06:05:43;;;;;;;;;;;;;;;21.50;45.50;97999.28;4864401;29;4204;-60
2022/02/17 06:08:10;;;;;;;;;;;;;;;21.48;45.44;97988.47;4868357;29;4353;-60
2022/02/17 06:10:36;;;;;;;;;;;;;;;21.49;45.23;97977.69;4864974;29;4212;-60
2022/02/17 06:13:03;;;;;;;;;;;;;;;21.49;45.21;97992.81;4863725;29;4243;-59
2022/02/17 06:15:29;;;;;;;;;;;;;;;21.47;45.15;98012.25;4863903;29;5309;-60
2022/02/17 06:17:55;;;;;;;;;;;;;;;21.50;45.22;98025.19;4865951;29;4297;-60
2022/02/17 06:20:22;;;;;;;;;;;;;;;21.51;45.14;98010.06;4861880;29;4242;-62
2022/02/17 06:22:48;;;;;;;;;;;;;;;21.55;45.09;98015.09;4863566;29;4243;-61
2022/02/17 06:25:15;;;;;;;;;;;;;;;21.54;45.24;98034.53;4859666;29;4265;-61
2022/02/17 06:27:41;;;;;;;;;;;;;;;21.53;45.28;98015.81;4871608;29;4243;-61
2022/02/17 06:30:08;;;;;;;;;;;;;;;21.53;45.32;98009.34;4869357;29;4156;-60
2022/02/17 06:32:34;;;;;;;;;;;;;;;21.53;45.25;98023.72;4868751;29;4319;-60
2022/02/17 06:35:01;;;;;;;;;;;;;;;21.55;45.17;98041.00;4867595;29;4104;-60
2022/02/17 06:37:27;;;;;;;;;;;;;;;21.56;44.87;98048.19;4869314;29;4253;-60
2022/02/17 06:39:53;;;;;;;;;;;;;;;21.60;45.18;98030.91;4866433;29;4280;-61
2022/02/17 06:42:20;;;;;;;;;;;;;;;21.60;45.62;98053.94;4871151;29;4270;-61
2022/02/17 06:44:46;;;;;;;;;;;;;;;21.59;45.62;98046.03;4872684;29;4270;-60
2022/02/17 06:47:12;;;;;;;;;;;;;;;21.57;45.77;98049.63;4873020;29;4270;-61
2022/02/17 06:49:39;;;;;;;;;;;;;;;21.61;45.35;98064.00;4865338;29;4272;-64
2022/02/17 06:52:06;;;;;;;;;;;;;;;21.59;45.51;98064.03;4865357;29;4618;-65
2022/02/17 06:54:35;;;;;;;;;;;;;;;21.64;45.35;98035.94;4868561;29;5255;-64
2022/02/17 06:57:02;;;;;;;;;;;;;;;21.62;45.42;98058.97;4861978;29;5491;-65
2022/02/17 06:59:28;;;;;;;;;;;;;;;21.66;45.28;98056.78;4860321;29;4241;-63
2022/02/17 07:01:55;;;;;;;;;;;;;;;21.63;45.20;98064.00;4863754;29;4488;-64
2022/02/17 07:04:21;;;;;;;;;;;;;;;21.59;44.88;98051.78;4862025;29;5265;-63
2022/02/17 07:06:48;;;;;;;;;;;;;;;21.58;44.81;98062.59;4864275;29;4260;-64
2022/02/17 07:09:15;;;;;;;;;;;;;;;21.56;44.63;98068.34;4867866;29;4201;-63
2022/02/17 07:11:41;;;;;;;;;;;;;;;21.57;44.48;98066.91;4860005;29;4272;-64
2022/02/17 07:14:10;;;;;;;;;;;;;;;21.56;44.19;98099.31;4866697;29;5459;-63
2022/02/17 07:16:37;;;;;;;;;;;;;;;21.55;44.29;98104.34;4861166;29;4225;-64
2022/02/17 07:19:03;;;;;;;;;;;;;;;21.54;44.08;98111.53;4861903;29;4241;-64
2022/02/17 07:21:29;;;;;;;;;;;;;;;21.53;43.95;98095.69;4864466;29;4232;-63
2022/02/17 07:23:57;;;;;;;;;;;;;;;21.49;43.84;98101.47;4866794;29;4451;-64
2022/02/17 07:26:24;;;;;;;;;;;;;;;21.49;43.18;98101.47;4864191;29;5327;-68
2022/02/17 07:28:51;;;;;;;;;;;;;;;21.07;38.44;98108.69;4865219;29;4132;-63
2022/02/17 07:31:17;;;;;;;;;;;;;;;21.09;38.73;98083.50;4865244;29;5545;-65
2022/02/17 07:33:43;;;;;;;;;;;;;;;21.19;38.63;98087.81;4870138;29;4345;-63
2022/02/17 07:36:11;;;;;;;;;;;;;;;21.28;39.07;98089.97;4869288;29;4275;-63
2022/02/17 07:38:47;;;;;;;;;;;;;;;21.33;39.28;98088.53;4866905;29;4109;-62
2022/02/17 07:41:14;;;;;;;;;;;;;;;21.38;39.39;98114.44;4855307;29;5639;-63
2022/02/17 07:43:40;;;;;;;;;;;;;;;21.41;39.76;98104.38;4864118;29;4220;-63
2022/02/17 07:46:08;;;;;;;;;;;;;;;21.43;39.90;98087.09;4870254;29;4148;-62
2022/02/17 07:48:35;;;;;;;;;;;;;;;21.44;40.17;98111.56;4863491;29;4203;-60
2022/02/17 07:51:02;;;;;;;;;;;;;;;21.47;41.11;98089.97;4862666;29;4277;-60
2022/02/17 07:53:28;;;;;;;;;;;;;;;21.48;41.26;98097.88;4860452;29;4307;-61
2022/02/17 07:55:55;;;;;;;;;;;;;;;21.52;41.87;98082.75;4871268;29;5147;-65
2022/02/17 07:58:23;;;;;;;;;;;;;;;21.78;42.97;98101.41;4868183;29;4249;-67
2022/02/17 08:00:49;;;;;;;;;;;;;;;22.10;42.12;98095.50;4861088;29;4294;-67
2022/02/17 08:03:16;;;;;;;;;;;;;;;22.25;41.75;98104.13;4866871;29;4423;-68
2022/02/17 08:05:42;;;;;;;;;;;;;;;22.36;41.17;98099.72;4870456;29;4125;-67
2022/02/17 08:08:09;;;;;;;;;;;;;;;22.44;41.20;98125.63;4870403;29;4274;-67
2022/02/17 08:10:35;;;;;;;;;;;;;;;22.46;40.87;98127.78;4854740;29;5236;-69
2022/02/17 08:13:05;;;;;;;;;;;;;;;22.46;40.74;98140.03;4868347;29;4108;-70
2022/02/17 08:15:31;;;;;;;;;;;;;;;22.49;40.65;98132.78;4870917;29;4226;-73
2022/02/17 08:17:59;;;;;;;;;;;;;;;22.53;40.51;98121.25;4870525;29;4286;-69
2022/02/17 08:20:25;;;;;;;;;;;;;;;22.57;40.62;98121.22;4859825;29;4233;-71
2022/02/17 08:22:53;;;;;;;;;;;;;;;22.56;40.20;98142.13;4873007;29;4176;-68
2022/02/17 08:25:20;;;;;;;;;;;;;;;22.50;40.49;98163.06;4872179;29;5487;-69
2022/02/17 08:27:47;;;;;;;;;;;;;;;22.62;40.59;98176.00;4871340;29;4120;-70
2022/02/17 08:30:13;;;;;;;;;;;;;;;22.68;40.25;98147.13;4870503;29;5471;-69
2022/02/17 08:32:44;;;;;;;;;;;;;;;22.68;40.45;98161.56;4873277;29;4609;-69
2022/02/17 08:35:11;;;;;;;;;;;;;;;22.63;40.67;98145.69;4876522;29;4205;-73
2022/02/17 08:37:40;;;;;;;;;;;;;;;22.68;40.57;98162.25;4871180;29;4288;-69
2022/02/17 08:40:07;;;;;;;;;;;;;;;22.72;40.39;98175.94;4870975;29;5288;-72
2022/02/17 08:42:33;;;;;;;;;;;;;;;22.73;40.91;98165.84;4872731;29;5320;-68
2022/02/17 08:45:00;;;;;;;;;;;;;;;22.75;40.73;98177.38;4876886;29;4334;-72
2022/02/17 08:47:26;;;;;;;;;;;;;;;22.74;40.75;98173.03;4874352;29;4245;-73
2022/02/17 08:49:52;;;;;;;;;;;;;;;22.75;40.88;98204.03;4872538;29;4505;-70
2022/02/17 08:52:21;;;;;;;;;;;;;;;22.72;40.75;98164.38;4869812;29;4296;-72
2022/02/17 08:54:48;;;;;;;;;;;;;;;22.65;41.38;98206.97;4871919;29;4369;-73
2022/02/17 08:57:15;;;;;;;;;;;;;;;22.78;42.06;98230.72;4873269;29;5386;-70
2022/02/17 08:59:41;;;;;;;;;;;;;;;22.88;41.71;98210.44;4864890;29;5487;-69
2022/02/17 09:02:08;;;;;;;;;;;;;;;22.96;41.55;98245.03;4870340;29;4061;-70
2022/02/17 09:04:38;;;;;;;;;;;;;;;22.98;41.82;98224.81;4867094;29;4204;-71
2022/02/17 09:07:04;;;;;;;;;;;;;;;22.96;41.97;98247.19;4865864;29;4207;-68
2022/02/17 09:09:31;;;;;;;;;;;;;;;22.92;41.81;98253.00;4861806;29;4274;-69
2022/02/17 09:11:57;;;;;;;;;;;;;;;22.92;41.59;98253.69;4866088;29;4228;-72
2022/02/17 09:14:23;;;;;;;;;;;;;;;22.92;41.84;98259.47;4870013;29;5319;-69
2022/02/17 09:16:52;;;;;;;;;;;;;;;22.89;41.89;98246.50;4866746;29;4596;-71
2022/02/17 09:19:19;;;;;;;;;;;;;;;22.88;41.95;98265.25;4858697;29;4115;-72
2022/02/17 09:21:45;;;;;;;;;;;;;;;22.90;42.16;98262.38;4860719;29;4280;-72
2022/02/17 09:24:12;;;;;;;;;;;;;;;22.91;41.54;98295.56;4862338;29;4233;-73
2022/02/17 09:26:38;;;;;;;;;;;;;;;22.79;41.56;98312.91;4858061;29;4250;-71
2022/02/17 09:29:05;;;;;;;;;;;;;;;22.71;41.97;98307.91;4868517;29;4303;-72
2022/02/17 09:31:51;;;;;;;;;;;;;;;22.74;42.47;98328.78;4871973;29;4213;-72
2022/02/17 09:34:18;;;;;;;;;;;;;;;22.78;42.95;98317.25;4873254;29;5495;-73
2022/02/17 09:36:44;;;;;;;;;;;;;;;22.80;43.00;98305.72;4866912;29;4806;-72
2022/02/17 09:39:10;;;;;;;;;;;;;;;22.79;43.21;98328.06;4870924;29;4232;-73
2022/02/17 09:41:37;;;;;;;;;;;;;;;23.01;43.17;98343.88;4869389;29;4212;-71
2022/02/17 09:44:08;;;;;;;;;;;;;;;23.11;42.66;98346.72;4873461;29;5376;-72
2022/02/17 09:46:44;;;;;;;;;;;;;;;23.15;42.67;98366.16;4870757;29;4246;-73
2022/02/17 09:49:13;;;;;;;;;;;;;;;23.03;42.49;98334.50;4873030;29;4303;-73
2022/02/17 09:51:40;;;;;;;;;;;;;;;22.91;42.39;98370.56;4870388;29;4171;-71
2022/02/17 09:54:06;;;;;;;;;;;;;;;22.87;42.46;98392.97;4870600;29;4360;-73
2022/02/17 09:56:35;;;;;;;;;;;;;;;22.87;42.85;98393.66;4868878;29;5927;-69
2022/02/17 09:59:01;;;;;;;;;;;;;;;22.63;42.40;98419.69;4871169;29;4311;-67
2022/02/17 10:01:27;;;;;;;;;;;;;;;22.63;42.65;98414.66;4866337;29;4232;-71
2022/02/17 10:04:13;;;;;;;;;;;;;;;22.65;43.11;98443.47;4872308;29;4278;-72
2022/02/17 10:06:41;;;;;;;;;;;;;;;22.67;42.63;98423.28;4874230;29;4381;-69
2022/02/17 10:09:07;;;;;;;;;;;;;;;22.52;42.73;98451.44;4873025;29;4341;-74
2022/02/17 10:11:34;;;;;;;;;;;;;;;22.35;43.08;98449.97;4861148;29;4135;-70
2022/02/17 10:14:01;;;;;;;;;;;;;;;22.30;43.31;98469.44;4866611;29;4188;-70
2022/02/17 10:16:27;;;;;;;;;;;;;;;22.24;43.35;98492.53;4866500;29;4197;-70
2022/02/17 10:18:55;;;;;;;;;;;;;;;22.20;43.23;98471.59;4870416;29;5336;-69
2022/02/17 10:21:21;;;;;;;;;;;;;;;22.14;43.30;98496.06;4867790;29;4308;-70
2022/02/17 10:23:49;;;;;;;;;;;;;;;22.12;43.15;98496.06;4869764;29;4102;-71
2022/02/17 10:26:16;;;;;;;;;;;;;;;22.09;43.05;98506.16;4870906;29;5522;-70
2022/02/17 10:28:43;;;;;;;;;;;;;;;22.11;43.37;98511.91;4868154;29;4101;-65
2022/02/17 10:31:26;;;;;;;;;;;;;;;22.13;43.51;98537.84;4868044;29;4461;-64
2022/02/17 10:33:54;;;;;;;;;;;;;;;22.24;43.83;98540.78;4870016;29;4163;-65
2022/02/17 10:36:37;;;;;;;;;;;;;;;22.28;43.18;98523.50;4867507;29;5373;-64
2022/02/17 10:39:07;;;;;;;;;;;;;;;22.34;43.12;98529.28;4866788;29;4290;-63
2022/02/17 10:41:43;;;;;;;;;;;;;;;22.35;42.83;98542.25;4866138;29;4134;-62
2022/02/17 10:44:10;;;;;;;;;;;;;;;22.38;42.89;98555.94;4867183;29;4094;-65
2022/02/17 10:46:36;;;;;;;;;;;;;;;22.40;43.21;98574.69;4867944;29;5448;-62
2022/02/17 10:49:12;;;;;;;;;;;;;;;22.38;43.03;98578.31;4869923;29;4208;-64
2022/02/17 10:51:38;;;;;;;;;;;;;;;22.41;42.97;98594.16;4869206;29;4219;-66
2022/02/17 10:54:07;;;;;;;;;;;;;;;22.10;43.25;98562.34;4868095;29;4334;-69
2022/02/17 10:56:33;;;;;;;;;;;;;;;22.07;43.03;98581.06;4861718;29;4283;-67
2022/02/17 10:59:05;;;;;;;;;;;;;;;22.09;43.07;98607.00;4861642;29;4555;-65
2022/02/17 11:01:31;;;;;;;;;;;;;;;22.11;43.09;98614.94;4859951;29;4313;-64
2022/02/17 11:04:00;;;;;;;;;;;;;;;22.10;43.23;98617.09;4864091;29;4306;-63
2022/02/17 11:06:26;;;;;;;;;;;;;;;22.08;43.22;98620.00;4866485;29;4232;-63
2022/02/17 11:08:52;;;;;;;;;;;;;;;22.07;43.42;98624.28;4866122;29;4268;-64
2022/02/17 11:11:20;;;;;;;;;;;;;;;22.05;43.56;98632.91;4858555;29;4236;-63
2022/02/17 11:13:47;;;;;;;;;;;;;;;22.02;42.83;98625.72;4865549;29;4293;-64
2022/02/17 11:16:15;;;;;;;;;;;;;;;21.91;41.46;98647.28;4869639;29;4297;-65
2022/02/17 11:18:43;;;;;;;;;;;;;;;21.92;42.86;98652.34;4866433;29;5083;-63
2022/02/17 11:21:14;;;;;;;;;;;;;;;21.96;43.18;98681.16;4864100;29;4741;-64
2022/02/17 11:23:41;;;;;;;;;;;;;;;21.98;43.61;98673.97;4864471;29;4375;-64
2022/02/17 11:26:18;;;;;;;;;;;;;;;22.05;43.46;98646.63;4869018;29;4321;-66
2022/02/17 11:28:44;;;;;;;;;;;;;;;22.07;44.15;98679.03;4860615;29;4338;-65
2022/02/17 11:31:12;;;;;;;;;;;;;;;22.05;44.47;98678.31;4860080;29;4176;-68
2022/02/17 11:33:41;;;;;;;;;;;;;;;22.06;44.78;98694.91;4867855;29;4163;-65
2022/02/17 11:36:07;;;;;;;;;;;;;;;22.05;45.20;98687.69;4866716;29;4242;-66
2022/02/17 11:38:34;;;;;;;;;;;;;;;22.06;45.46;98694.91;4869026;29;4516;-65
2022/02/17 11:41:01;;;;;;;;;;;;;;;22.07;45.58;98695.63;4865626;29;5365;-64
2022/02/17 11:43:28;;;;;;;;;;;;;;;22.06;45.57;98717.97;4879018;29;4206;-64
2022/02/17 11:45:55;;;;;;;;;;;;;;;22.06;45.42;98712.19;4875346;29;4287;-65
2022/02/17 11:48:34;;;;;;;;;;;;;;;22.09;45.41;98727.34;4871858;29;4637;-62
2022/02/17 11:51:11;;;;;;;;;;;;;;;22.08;45.26;98735.25;4863635;29;4784;-62
2022/02/17 11:53:40;;;;;;;;;;;;;;;22.07;45.16;98759.03;4868073;29;4672;-62
2022/02/17 11:56:19;;;;;;;;;;;;;;;22.08;45.10;98766.97;4869019;29;4372;-62
2022/02/17 11:58:47;;;;;;;;;;;;;;;22.06;45.17;98764.06;4866607;29;4359;-62
2022/02/17 12:01:25;;;;;;;;;;;;;;;22.08;45.25;98766.97;4867727;29;4104;-64
2022/02/17 12:03:58;;;;;;;;;;;;;;;22.17;44.86;98785.00;4866266;29;4233;-61
2022/02/17 12:06:51;;;;;;;;;;;;;;;22.13;44.99;98785.72;4867367;29;4200;-63
2022/02/17 12:09:30;;;;;;;;;;;;;;;22.17;44.85;98803.03;4865210;29;5297;-64
2022/02/17 12:12:35;;;;;;;;;;;;;;;22.22;44.72;98808.84;4864809;29;5289;-63
2022/02/17 12:15:05;;;;;;;;;;;;;;;22.28;44.43;98823.31;4868534;29;4204;-63
2022/02/17 12:17:33;;;;;;;;;;;;;;;22.27;44.16;98827.63;4864455;29;4205;-65
2022/02/17 12:20:01;;;;;;;;;;;;;;;22.28;44.14;98831.94;4867099;29;5482;-66
2022/02/17 12:22:27;;;;;;;;;;;;;;;22.24;44.35;98829.78;4862708;29;5380;-66
2022/02/17 12:25:10;;;;;;;;;;;;;;;22.26;44.42;98843.47;4865495;29;4145;-64
2022/02/17 12:27:36;;;;;;;;;;;;;;;22.27;43.99;98862.22;4864948;29;4280;-65
2022/02/17 12:30:02;;;;;;;;;;;;;;;22.28;43.94;98857.91;4882365;29;5507;-65
2022/02/17 12:32:30;;;;;;;;;;;;;;;22.28;43.74;98875.19;4864219;29;4214;-66
2022/02/17 12:34:56;;;;;;;;;;;;;;;22.45;43.68;98888.31;4863724;29;4330;-65
2022/02/17 12:37:23;;;;;;;;;;;;;;;22.70;43.34;98886.28;4867031;29;4236;-65
2022/02/17 12:39:54;;;;;;;;;;;;;;;22.89;43.56;98904.41;4864417;29;4243;-65
2022/02/17 12:42:21;;;;;;;;;;;;;;;22.99;43.39;98910.25;4866230;29;5310;-63
2022/02/17 12:44:49;;;;;;;;;;;;;;;23.04;43.18;98918.94;4863890;29;4312;-62
2022/02/17 12:47:17;;;;;;;;;;;;;;;23.07;42.89;98914.63;4867550;29;5357;-62
2022/02/17 12:49:46;;;;;;;;;;;;;;;23.09;43.04;98920.38;4866346;29;4382;-64
2022/02/17 12:52:12;;;;;;;;;;;;;;;23.07;42.80;98937.72;4864748;29;4228;-65
2022/02/17 12:54:39;;;;;;;;;;;;;;;23.07;42.92;98943.50;4866810;29;4296;-64
2022/02/17 12:57:10;;;;;;;;;;;;;;;23.12;42.59;98950.72;4863317;29;4306;-62
2022/02/17 12:59:37;;;;;;;;;;;;;;;23.12;42.48;98948.56;4865640;29;5392;-63
2022/02/17 13:02:04;;;;;;;;;;;;;;;22.77;42.48;98956.28;4861022;29;5370;-64
2022/02/17 13:04:31;;;;;;;;;;;;;;;22.43;42.60;98977.69;4860624;29;6537;-63
2022/02/17 13:07:04;;;;;;;;;;;;;;;22.34;42.84;98981.94;4865761;29;5500;-64